Time;durP1;ratioP1;P1;durP2;ratioP2;P2;SDS_P1;SDS_P2;PMS_P1;PMS_P2;Temp;Humidity;BMP_temperature;BMP_pressure;BME280_temperature;BME280_humidity;BME280_pressure;Samples;Min_cycle;Max_cycle;Signal;HPM_P1;HPM_P2
2022/09/05 00:00:13;;;;;;;2.42;1.75;;;;;;;14.95;100.00;99134.38;5029063;28;20025;-74
2022/09/05 00:02:49;;;;;;;4.60;1.73;;;;;;;14.98;100.00;99151.09;5028129;28;20403;-73
2022/09/05 00:05:35;;;;;;;3.10;1.42;;;;;;;14.86;100.00;99147.44;5029363;28;20025;-73
2022/09/05 00:08:24;;;;;;;2.50;1.73;;;;;;;14.72;100.00;99151.31;5026996;28;20049;-73
2022/09/05 00:11:04;;;;;;;2.50;1.70;;;;;;;14.68;100.00;99143.59;5026085;28;20044;-73
2022/09/05 00:13:36;;;;;;;3.40;2.00;;;;;;;14.52;100.00;99138.66;5031224;28;20298;-73
2022/09/05 00:16:37;;;;;;;3.17;1.50;;;;;;;14.73;100.00;99156.56;5014985;28;20112;-73
2022/09/05 00:19:21;;;;;;;3.50;1.60;;;;;;;14.69;100.00;99152.59;5015082;28;20057;-73
2022/09/05 00:22:14;;;;;;;3.25;1.67;;;;;;;14.45;100.00;99129.72;5028490;28;20045;-73
2022/09/05 00:25:15;;;;;;;4.93;1.70;;;;;;;14.42;100.00;99133.69;5030557;28;20115;-73
2022/09/05 00:27:59;;;;;;;2.70;1.90;;;;;;;14.38;100.00;99156.13;5032336;28;20044;-73
2022/09/05 00:30:30;;;;;;;2.35;1.73;;;;;;;14.25;100.00;99149.75;5031994;28;20467;-73
2022/09/05 00:33:20;;;;;;;2.75;1.92;;;;;;;14.30;100.00;99153.69;5035605;28;20779;-73
2022/09/05 00:36:06;;;;;;;3.00;1.77;;;;;;;14.32;100.00;99151.56;5028215;28;20079;-73
2022/09/05 00:38:33;;;;;;;2.28;1.80;;;;;;;14.28;100.00;99134.00;5023877;28;20594;-72
2022/09/05 00:41:06;;;;;;;3.30;1.92;;;;;;;14.33;100.00;99126.88;5028610;28;20044;-73
2022/09/05 00:43:34;;;;;;;2.92;2.03;;;;;;;14.34;100.00;99122.25;5015538;28;20047;-73
2022/09/05 00:46:09;;;;;;;3.42;2.17;;;;;;;14.36;100.00;99131.03;5024436;28;20057;-73
2022/09/05 00:48:45;;;;;;;4.82;1.95;;;;;;;14.39;100.00;99142.31;5029129;28;20503;-73
2022/09/05 00:51:37;;;;;;;3.47;1.92;;;;;;;14.47;100.00;99138.50;5014453;28;20048;-72
2022/09/05 00:54:24;;;;;;;4.35;2.20;;;;;;;14.62;100.00;99149.94;5029713;28;20032;-73
2022/09/05 00:56:56;;;;;;;3.63;2.20;;;;;;;14.38;100.00;99134.34;5031907;28;20026;-73
2022/09/05 00:59:43;;;;;;;3.40;2.13;;;;;;;14.42;100.00;99147.31;5032865;28;20080;-73
2022/09/05 01:02:27;;;;;;;4.38;2.50;;;;;;;14.52;100.00;99144.13;5030683;28;20113;-73
2022/09/05 01:05:16;;;;;;;2.25;1.90;;;;;;;14.37;100.00;99146.31;5032762;28;20450;-73
2022/09/05 01:08:18;;;;;;;4.20;2.33;;;;;;;14.18;100.00;99145.38;5032006;28;20072;-73
2022/09/05 01:10:50;;;;;;;8.93;2.38;;;;;;;14.04;100.00;99144.59;5028728;28;20104;-73
2022/09/05 01:13:21;;;;;;;4.93;2.78;;;;;;;14.00;100.00;99141.50;5029600;28;20075;-73
2022/09/05 01:16:01;;;;;;;3.85;2.60;;;;;;;13.88;100.00;99143.22;5006843;28;20402;-73
2022/09/05 01:18:35;;;;;;;4.00;2.20;;;;;;;13.87;100.00;99143.47;5012682;28;20022;-73
2022/09/05 01:21:08;;;;;;;9.90;2.60;;;;;;;13.67;100.00;99127.22;5013502;28;20094;-73
2022/09/05 01:23:52;;;;;;;4.10;2.63;;;;;;;13.77;100.00;99150.19;5012670;28;20029;-73
2022/09/05 01:26:42;;;;;;;17.48;3.03;;;;;;;13.68;100.00;99129.72;5030044;28;20018;-73
2022/09/05 01:29:14;;;;;;;;;;;;;;;13.75;100.00;99135.13;5019266;28;20395;-73
2022/09/05 01:31:54;;;;;;;5.85;2.20;;;;;;;13.69;100.00;99147.69;5030748;28;19952;-73
2022/09/05 01:34:35;;;;;;;4.90;2.20;;;;;;;13.68;100.00;99148.75;5026314;28;20104;-73
2022/09/05 01:37:21;;;;;;;4.63;2.55;;;;;;;13.54;100.00;99128.09;5027580;28;20122;-73
2022/09/05 01:40:06;;;;;;;4.40;2.33;;;;;;;13.60;100.00;99138.13;5014974;28;20024;-73
2022/09/05 01:43:03;;;;;;;4.47;2.35;;;;;;;13.41;100.00;99118.09;5013332;28;20727;-73
2022/09/05 01:45:49;;;;;;;3.85;2.05;;;;;;;13.34;100.00;99104.53;5028764;28;20427;-73
2022/09/05 01:48:30;;;;;;;3.95;2.05;;;;;;;13.49;100.00;99131.47;5023905;28;20084;-73
2022/09/05 01:51:13;;;;;;;2.35;1.85;;;;;;;13.39;100.00;99125.66;5028277;28;20041;-73
2022/09/05 01:53:49;;;;;;;2.80;1.90;;;;;;;13.24;100.00;99123.16;5012999;28;20116;-73
2022/09/05 01:56:35;;;;;;;2.83;1.80;;;;;;;13.20;100.00;99129.22;5025052;28;20037;-73
2022/09/05 01:59:00;;;;;;;2.83;2.00;;;;;;;13.15;100.00;99124.41;5029179;28;20705;-73
2022/09/05 02:01:34;;;;;;;5.55;2.22;;;;;;;13.12;100.00;99113.97;5013664;28;20076;-73
2022/09/05 02:04:17;;;;;;;3.65;2.63;;;;;;;13.07;100.00;99124.63;5030507;28;20040;-73
2022/09/05 02:06:55;;;;;;;5.40;2.55;;;;;;;13.04;100.00;99116.91;5013111;28;20037;-73
2022/09/05 02:09:48;;;;;;;3.97;2.35;;;;;;;13.15;100.00;99118.97;5029662;28;20025;-73
2022/09/05 02:12:13;;;;;;;5.18;2.17;;;;;;;13.24;100.00;99120.44;5029527;28;20110;-73
2022/09/05 02:14:59;;;;;;;6.25;2.15;;;;;;;13.30;100.00;99119.59;5030922;28;20048;-73
2022/09/05 02:17:40;;;;;;;2.95;2.22;;;;;;;13.22;100.00;99105.38;5010305;28;20021;-73
2022/09/05 02:20:15;;;;;;;2.58;2.00;;;;;;;13.20;100.00;99115.63;5030516;28;20045;-73
2022/09/05 02:23:30;;;;;;;4.13;2.13;;;;;;;13.18;100.00;99107.69;5013020;28;20030;-73
2022/09/05 02:26:22;;;;;;;4.25;2.40;;;;;;;13.20;100.00;99116.44;4961242;28;20057;-72
2022/09/05 02:29:01;;;;;;;3.55;2.08;;;;;;;13.07;100.00;99094.75;5030182;28;20024;-73
2022/09/05 02:31:44;;;;;;;3.42;2.10;;;;;;;13.08;100.00;99101.88;5012288;28;20048;-73
2022/09/05 02:34:31;;;;;;;4.00;2.35;;;;;;;12.96;100.00;99093.53;5012997;28;20041;-73
2022/09/05 02:37:11;;;;;;;4.00;2.28;;;;;;;12.94;100.00;99096.47;5027481;28;20053;-73
2022/09/05 02:40:24;;;;;;;4.63;2.80;;;;;;;12.87;100.00;99092.91;5030357;28;20034;-73
2022/09/05 02:42:52;;;;;;;5.63;2.67;;;;;;;12.83;100.00;99104.41;5030480;28;20026;-73
2022/09/05 02:45:44;;;;;;;4.70;2.92;;;;;;;12.85;100.00;99099.59;5030979;28;20095;-73
2022/09/05 02:48:25;;;;;;;4.80;2.72;;;;;;;12.75;100.00;99091.06;5022568;28;20039;-73
2022/09/05 02:51:12;;;;;;;4.38;2.70;;;;;;;12.76;100.00;99104.44;5012974;28;20506;-73
2022/09/05 02:53:42;;;;;;;3.17;2.60;;;;;;;12.70;100.00;99095.22;5026565;28;20025;-74
2022/09/05 02:56:39;;;;;;;3.30;2.60;;;;;;;12.80;100.00;99094.81;5029807;28;20029;-73
2022/09/05 02:59:40;;;;;;;4.10;2.67;;;;;;;12.68;100.00;99096.47;5024569;28;20033;-73
2022/09/05 03:02:21;;;;;;;3.13;2.30;;;;;;;12.65;100.00;99100.47;5011292;28;20698;-73
2022/09/05 03:04:54;;;;;;;5.75;2.67;;;;;;;12.57;100.00;99091.69;5028154;28;20051;-73
2022/09/05 03:07:46;;;;;;;4.65;3.10;;;;;;;12.65;100.00;99102.31;5029769;28;20025;-73
2022/09/05 03:10:57;;;;;;;6.68;2.95;;;;;;;12.45;100.00;99086.91;5011517;28;20018;-73
2022/09/05 03:13:44;;;;;;;3.58;2.90;;;;;;;12.53;100.00;99117.59;5030116;28;20037;-73
2022/09/05 03:16:37;;;;;;;4.78;2.72;;;;;;;12.50;100.00;99106.09;5018127;28;20025;-73
2022/09/05 03:19:03;;;;;;;4.20;2.92;;;;;;;12.45;100.00;99113.19;5022559;28;20033;-73
2022/09/05 03:21:52;;;;;;;7.72;2.55;;;;;;;12.47;100.00;99111.94;5012192;28;20044;-73
2022/09/05 03:24:55;;;;;;;6.03;2.85;;;;;;;12.61;100.00;99112.78;5028981;28;20131;-73
2022/09/05 03:27:45;;;;;;;4.35;2.63;;;;;;;12.65;100.00;99118.63;5026492;28;20082;-74
2022/09/05 03:30:33;;;;;;;3.90;2.72;;;;;;;12.57;100.00;99122.38;5028020;28;20032;-73
2022/09/05 03:33:20;;;;;;;5.38;2.60;;;;;;;12.50;100.00;99124.25;5025981;28;20033;-73
2022/09/05 03:36:08;;;;;;;3.60;2.67;;;;;;;12.38;100.00;99118.59;5023826;28;20032;-73
2022/09/05 03:39:04;;;;;;;7.07;3.00;;;;;;;12.49;100.00;99119.88;5031120;28;20022;-73
2022/09/05 03:41:59;;;;;;;3.67;2.45;;;;;;;12.56;100.00;99123.44;5011857;28;20479;-73
2022/09/05 03:44:46;;;;;;;4.47;2.92;;;;;;;12.63;100.00;99118.84;5013051;28;20033;-73
2022/09/05 03:47:14;;;;;;;3.63;2.80;;;;;;;12.69;100.00;99130.75;5029672;28;20487;-73
2022/09/05 03:50:11;;;;;;;5.93;2.40;;;;;;;12.68;100.00;99118.19;5015780;28;20049;-73
2022/09/05 03:53:14;;;;;;;3.53;2.55;;;;;;;12.71;100.00;99124.06;5015889;28;20128;-73
2022/09/05 03:55:47;;;;;;;4.10;2.60;;;;;;;12.80;100.00;99126.56;5033031;28;20028;-73
2022/09/05 03:58:37;;;;;;;3.33;2.20;;;;;;;12.89;100.00;99126.13;5003981;28;20037;-73
2022/09/05 04:01:22;;;;;;;4.93;2.40;;;;;;;12.85;100.00;99129.47;5014127;28;20069;-73
2022/09/05 04:04:04;;;;;;;2.88;2.00;;;;;;;12.78;100.00;99129.47;5032230;28;20470;-73
2022/09/05 04:06:33;;;;;;;3.42;2.47;;;;;;;12.70;100.00;99124.25;5028891;28;20137;-73
2022/09/05 04:09:21;;;;;;;4.38;2.40;;;;;;;12.46;100.00;99118.41;5031960;28;20029;-73
2022/09/05 04:11:53;;;;;;;3.22;2.30;;;;;;;12.31;100.00;99101.47;5026655;28;20037;-73
2022/09/05 04:14:27;;;;;;;4.70;2.67;;;;;;;12.43;100.00;99121.53;5033455;28;20079;-73
2022/09/05 04:17:10;;;;;;;6.25;2.60;;;;;;;12.41;100.00;99122.78;5027099;28;20383;-73
2022/09/05 04:19:46;;;;;;;3.35;2.85;;;;;;;12.39;100.00;99130.28;5031661;28;20071;-73
2022/09/05 04:22:30;;;;;;;3.60;2.47;;;;;;;12.33;100.00;99131.97;5028109;28;20117;-73
2022/09/05 04:25:05;;;;;;;6.57;2.47;;;;;;;12.24;100.00;99133.22;5032777;28;20052;-73
2022/09/05 04:27:54;;;;;;;5.68;2.67;;;;;;;12.25;100.00;99129.44;5030899;28;20022;-73
2022/09/05 04:30:23;;;;;;;;;;;;;;;12.24;100.00;99125.91;5014207;28;20022;-73
2022/09/05 04:33:10;;;;;;;5.20;2.88;;;;;;;12.23;100.00;99124.22;5031131;28;19927;-73
2022/09/05 04:35:44;;;;;;;6.35;2.85;;;;;;;12.16;100.00;99111.72;5032417;28;20454;-73
2022/09/05 04:38:13;;;;;;;3.78;2.72;;;;;;;12.27;100.00;99132.78;5017845;28;22127;-73
2022/09/05 04:40:47;;;;;;;6.82;2.88;;;;;;;12.27;100.00;99133.63;5029552;28;20487;-73
2022/09/05 04:43:24;;;;;;;7.43;3.85;;;;;;;12.31;100.00;99131.31;5031172;28;20114;-74
2022/09/05 04:45:58;;;;;;;9.13;3.65;;;;;;;12.38;100.00;99134.06;5014481;28;20033;-74
2022/09/05 04:48:31;;;;;;;4.68;3.22;;;;;;;12.27;100.00;99102.94;5031074;28;20029;-73
2022/09/05 04:51:06;;;;;;;8.40;2.67;;;;;;;12.53;100.00;99128.44;5032194;28;20376;-74
2022/09/05 04:53:41;;;;;;;5.80;2.55;;;;;;;12.25;100.00;99086.03;5026211;28;20387;-74
2022/09/05 04:56:15;;;;;;;13.05;2.95;;;;;;;12.34;100.00;99109.22;5030945;28;20059;-74
2022/09/05 04:58:50;;;;;;;7.30;2.58;;;;;;;12.58;100.00;99144.94;5026755;28;20037;-70
2022/09/05 05:01:42;;;;;;;5.95;2.10;;;;;;;12.55;100.00;99143.47;5019426;28;20025;-73
2022/09/05 05:04:15;;;;;;;3.03;2.13;;;;;;;12.49;100.00;99147.00;5016296;28;20041;-71
2022/09/05 05:06:55;;;;;;;2.95;2.15;;;;;;;12.47;100.00;99160.78;5011210;28;20025;-73
2022/09/05 05:09:29;;;;;;;3.50;2.45;;;;;;;12.57;100.00;99159.53;5025203;28;20026;-71
2022/09/05 05:12:08;;;;;;;3.92;2.88;;;;;;;12.69;100.00;99153.28;5026400;28;20091;-72
2022/09/05 05:14:45;;;;;;;5.15;2.65;;;;;;;12.91;100.00;99155.78;5027475;28;20061;-71
2022/09/05 05:17:25;;;;;;;4.22;2.67;;;;;;;13.02;100.00;99140.72;5008488;28;20029;-71
2022/09/05 05:20:15;;;;;;;5.00;2.78;;;;;;;13.40;100.00;99148.22;5019146;28;20036;-71
2022/09/05 05:23:00;;;;;;;4.65;2.55;;;;;;;13.57;100.00;99144.84;5010640;28;20053;-74
2022/09/05 05:25:26;;;;;;;3.65;2.53;;;;;;;13.74;100.00;99145.19;5020877;28;20435;-73
2022/09/05 05:28:06;;;;;;;4.85;2.45;;;;;;;13.84;100.00;99152.06;5008537;28;20082;-71
2022/09/05 05:30:32;;;;;;;9.15;3.28;;;;;;;13.90;100.00;99137.56;5029231;28;20029;-69
2022/09/05 05:33:09;;;;;;;4.28;2.20;;;;;;;14.59;100.00;99150.38;5028996;28;20083;-73
2022/09/05 05:35:37;;;;;;;3.40;2.13;;;;;;;15.63;100.00;99138.91;5019306;28;20095;-71
2022/09/05 05:38:20;;;;;;;2.65;2.15;;;;;;;15.81;100.00;99154.47;5028376;28;20037;-73
2022/09/05 05:40:53;;;;;;;5.82;2.28;;;;;;;16.18;99.43;99153.31;5021214;28;20455;-70
2022/09/05 05:43:21;;;;;;;4.93;2.20;;;;;;;16.40;92.10;99152.78;5026024;28;20025;-73
2022/09/05 05:45:58;;;;;;;3.20;2.20;;;;;;;17.32;82.52;99144.19;5025974;28;20025;-74
2022/09/05 05:48:29;;;;;;;4.50;2.83;;;;;;;17.90;76.76;99135.03;5026119;28;20053;-71
2022/09/05 05:51:41;;;;;;;5.78;2.47;;;;;;;19.27;67.83;99156.91;5023636;28;20041;-74
2022/09/05 05:54:24;;;;;;;5.25;2.25;;;;;;;21.08;59.03;99161.47;5025417;28;20118;-71
2022/09/05 05:57:04;;;;;;;6.72;2.35;;;;;;;21.45;57.24;99172.50;5017681;28;20036;-70
2022/09/05 05:59:48;;;;;;;5.88;2.20;;;;;;;22.86;53.54;99163.38;5027762;28;20368;-70
2022/09/05 06:03:01;;;;;;;2.65;1.95;;;;;;;23.96;51.37;99165.44;5031433;28;20033;-66
2022/09/05 06:05:37;;;;;;;5.10;1.80;;;;;;;23.31;52.24;99153.44;4988227;28;20545;-66
2022/09/05 06:08:08;;;;;;;3.20;1.98;;;;;;;23.30;52.44;99169.19;5018853;28;20056;-66
2022/09/05 06:10:54;;;;;;;3.75;1.90;;;;;;;23.29;52.95;99164.78;5022304;28;20053;-66
2022/09/05 06:13:41;;;;;;;3.97;2.05;;;;;;;23.69;51.04;99164.97;5025705;28;20041;-66
2022/09/05 06:16:28;;;;;;;5.68;2.25;;;;;;;23.72;51.70;99176.31;5024117;28;20041;-70
2022/09/05 06:19:24;;;;;;;5.53;2.03;;;;;;;23.96;50.96;99173.72;5017985;28;20022;-70
2022/09/05 06:22:14;;;;;;;3.00;2.00;;;;;;;23.58;51.50;99164.19;5022692;28;20024;-69
2022/09/05 06:24:56;;;;;;;4.38;2.20;;;;;;;23.84;51.60;99171.31;5008503;28;20146;-69
2022/09/05 06:27:31;;;;;;;5.15;2.03;;;;;;;23.79;51.23;99165.78;5002097;28;22037;-69
2022/09/05 06:30:00;;;;;;;7.78;2.10;;;;;;;23.51;51.92;99153.41;5007758;28;20140;-69
2022/09/05 06:32:45;;;;;;;5.28;2.10;;;;;;;23.71;52.50;99171.00;5006587;28;20481;-69
2022/09/05 06:35:48;;;;;;;4.97;2.22;;;;;;;24.60;50.06;99161.00;5020087;28;20025;-69
2022/09/05 06:38:25;;;;;;;7.82;2.20;;;;;;;25.09;48.58;99171.13;5026944;28;20513;-69
2022/09/05 06:40:57;;;;;;;3.58;2.45;;;;;;;25.36;47.69;99173.41;5005536;28;20545;-69
2022/09/05 06:43:40;;;;;;;8.00;1.90;;;;;;;26.92;44.41;99158.13;5020174;28;20079;-69
2022/09/05 06:46:14;;;;;;;7.47;2.20;;;;;;;27.30;43.64;99156.13;5023900;28;20033;-69
2022/09/05 06:49:18;;;;;;;7.85;2.35;;;;;;;27.85;42.69;99162.88;5019916;28;20025;-69
2022/09/05 06:51:55;;;;;;;5.70;1.95;;;;;;;29.28;40.13;99170.81;5001653;28;20060;-69
2022/09/05 06:54:32;;;;;;;5.93;1.85;;;;;;;28.06;41.32;99158.56;5019969;28;20037;-69
2022/09/05 06:57:07;;;;;;;6.63;1.90;;;;;;;29.24;39.37;99183.75;5015382;28;20068;-69
2022/09/05 06:59:55;;;;;;;4.53;1.80;;;;;;;29.78;38.99;99184.53;5024233;28;20501;-69
2022/09/05 07:02:37;;;;;;;3.72;2.00;;;;;;;29.72;38.82;99180.25;5023883;28;20029;-69
2022/09/05 07:05:23;;;;;;;5.40;1.83;;;;;;;28.25;41.37;99183.47;5014271;28;20034;-69
2022/09/05 07:07:53;;;;;;;5.55;2.22;;;;;;;28.78;41.19;99176.47;5022420;28;20033;-69
2022/09/05 07:10:28;;;;;;;5.18;2.17;;;;;;;29.17;40.54;99184.19;5025919;28;20039;-70
2022/09/05 07:13:06;;;;;;;4.70;1.65;;;;;;;29.96;39.29;99179.84;5021102;28;20511;-69
2022/09/05 07:15:49;;;;;;;7.32;2.03;;;;;;;31.95;35.42;99183.81;5016864;28;20029;-69
2022/09/05 07:18:36;;;;;;;8.55;2.00;;;;;;;30.93;37.33;99179.72;5014233;28;20476;-68
2022/09/05 07:21:16;;;;;;;6.07;2.15;;;;;;;31.42;36.50;99177.53;5024511;28;20036;-67
2022/09/05 07:23:42;;;;;;;3.13;2.13;;;;;;;31.24;36.70;99187.09;5026838;28;20387;-71
2022/09/05 07:26:09;;;;;;;4.28;1.80;;;;;;;32.83;33.82;99170.06;5027042;28;20037;-71
2022/09/05 07:28:39;;;;;;;5.43;1.98;;;;;;;32.35;34.51;99163.00;5009626;28;20517;-70
2022/09/05 07:31:14;;;;;;;2.55;1.95;;;;;;;33.56;32.91;99181.63;5027669;28;20204;-71
2022/09/05 07:33:42;;;;;;;2.60;1.83;;;;;;;33.64;32.61;99185.47;5026703;28;20033;-73
2022/09/05 07:36:13;;;;;;;5.78;1.83;;;;;;;34.66;31.45;99177.19;5026482;28;20025;-75
2022/09/05 07:38:39;;;;;;;4.60;1.67;;;;;;;34.60;31.35;99165.38;5029032;28;20162;-73
2022/09/05 07:41:10;;;;;;;3.30;1.60;;;;;;;34.56;31.05;99183.25;5011797;28;20436;-73
2022/09/05 07:43:39;;;;;;;3.40;1.40;;;;;;;34.64;30.65;99171.94;5024619;28;20377;-72
2022/09/05 07:46:10;;;;;;;3.47;1.40;;;;;;;34.32;31.26;99182.13;5001259;28;20029;-69
2022/09/05 07:48:51;;;;;;;5.85;1.30;;;;;;;33.78;32.31;99180.34;5023594;28;20082;-68
2022/09/05 07:51:29;;;;;;;3.50;1.38;;;;;;;33.92;31.99;99168.78;5023246;28;20037;-69
2022/09/05 07:54:01;;;;;;;2.42;1.60;;;;;;;34.00;31.56;99170.66;5003047;28;20487;-69
2022/09/05 07:56:44;;;;;;;2.58;1.58;;;;;;;33.54;32.46;99163.50;5021326;28;20491;-69
2022/09/05 07:59:12;;;;;;;2.10;1.20;;;;;;;34.49;31.33;99169.81;5021303;28;20026;-70
2022/09/05 08:01:42;;;;;;;2.30;1.33;;;;;;;34.67;31.39;99167.59;5022907;28;20104;-70
2022/09/05 08:04:08;;;;;;;3.10;1.40;;;;;;;35.72;30.03;99161.72;5025126;28;20029;-70
2022/09/05 08:06:35;;;;;;;6.18;1.90;;;;;;;35.88;29.88;99161.72;5027242;28;20087;-70
2022/09/05 08:09:25;;;;;;;2.03;1.38;;;;;;;36.35;29.36;99168.50;5026562;28;20370;-70
2022/09/05 08:11:55;;;;;;;3.55;1.35;;;;;;;35.56;29.69;99164.50;5025507;28;20547;-70
2022/09/05 08:14:46;;;;;;;3.03;1.23;;;;;;;36.11;29.79;99169.56;5009992;28;20065;-71
2022/09/05 08:17:20;;;;;;;1.60;0.95;;;;;;;35.45;29.82;99165.38;5028318;28;20033;-71
2022/09/05 08:19:57;;;;;;;3.17;1.00;;;;;;;36.48;28.97;99166.38;5018224;28;20100;-70
2022/09/05 08:22:28;;;;;;;4.18;1.17;;;;;;;36.91;28.40;99161.69;5003134;28;20033;-70
2022/09/05 08:25:11;;;;;;;2.28;1.10;;;;;;;36.78;28.73;99146.91;5023746;28;20541;-71
2022/09/05 08:28:01;;;;;;;3.83;1.10;;;;;;;36.62;28.93;99161.88;5022073;28;20021;-70
2022/09/05 08:30:26;;;;;;;5.07;1.40;;;;;;;37.05;28.02;99160.00;5029205;28;20144;-71
2022/09/05 08:33:03;;;;;;;4.95;1.20;;;;;;;37.74;27.72;99159.28;5030342;28;20654;-71
2022/09/05 08:35:44;;;;;;;3.13;0.90;;;;;;;37.39;27.07;99154.63;5024082;28;20025;-72
2022/09/05 08:38:12;;;;;;;2.65;0.98;;;;;;;33.62;31.67;99142.13;5026605;28;20072;-72
2022/09/05 08:40:50;;;;;;;4.68;1.67;;;;;;;36.32;29.10;99158.78;5023059;28;20476;-72
2022/09/05 08:43:41;;;;;;;2.20;1.10;;;;;;;37.43;27.43;99154.66;5028298;28;20033;-72
2022/09/05 08:46:12;;;;;;;8.57;1.35;;;;;;;37.72;27.14;99162.47;5010345;28;20486;-72
2022/09/05 08:48:38;;;;;;;6.50;1.35;;;;;;;38.70;26.02;99161.97;5030192;28;20483;-72
2022/09/05 08:51:12;;;;;;;1.77;0.90;;;;;;;38.13;26.81;99156.31;5031060;28;20045;-72
2022/09/05 08:53:49;;;;;;;8.15;1.15;;;;;;;38.87;26.31;99157.78;5024278;28;20030;-72
2022/09/05 08:56:24;;;;;;;2.97;1.10;;;;;;;39.45;25.18;99149.59;5027488;28;20104;-71
2022/09/05 08:59:01;;;;;;;1.85;0.90;;;;;;;39.05;26.20;99143.88;5053881;28;20036;-71
2022/09/05 09:01:44;;;;;;;4.03;1.13;;;;;;;39.06;25.71;99148.31;5050522;28;20028;-72
2022/09/05 09:04:39;;;;;;;2.33;1.00;;;;;;;37.21;27.24;99147.81;5012227;28;20060;-72
2022/09/05 09:07:13;;;;;;;3.42;1.10;;;;;;;38.26;26.51;99145.63;5030763;28;20079;-72
2022/09/05 09:09:42;;;;;;;1.20;0.90;;;;;;;38.92;26.24;99140.50;5013797;28;20032;-72
2022/09/05 09:12:42;;;;;;;5.50;1.25;;;;;;;38.52;26.59;99139.16;5025161;28;20029;-72
2022/09/05 09:15:23;;;;;;;3.47;1.00;;;;;;;37.66;26.66;99130.09;4994428;28;20041;-72
2022/09/05 09:17:50;;;;;;;1.85;1.00;;;;;;;38.30;26.46;99130.31;5023998;28;20021;-72
2022/09/05 09:20:50;;;;;;;2.10;1.02;;;;;;;39.10;25.82;99120.88;5012081;28;20017;-72
2022/09/05 09:23:22;;;;;;;4.75;0.80;;;;;;;39.27;25.46;99128.75;5025974;28;20032;-71
2022/09/05 09:25:59;;;;;;;3.53;1.02;;;;;;;39.62;25.42;99125.47;5009875;28;20060;-72
2022/09/05 09:28:41;;;;;;;4.15;0.95;;;;;;;38.16;26.36;99127.28;5023421;28;20446;-72
2022/09/05 09:31:20;;;;;;;3.60;0.90;;;;;;;38.98;25.99;99128.44;5029353;28;20091;-71
2022/09/05 09:34:33;;;;;;;5.82;1.10;;;;;;;38.24;26.41;99122.56;5025374;28;20053;-71
2022/09/05 09:37:07;;;;;;;3.75;1.10;;;;;;;37.41;27.19;99111.88;5009412;28;20161;-72
2022/09/05 09:39:56;;;;;;;5.05;0.88;;;;;;;37.40;27.44;99110.25;5027616;28;20759;-72
2022/09/05 09:42:46;;;;;;;2.63;0.90;;;;;;;38.19;26.36;99103.13;5010596;28;20026;-72
2022/09/05 09:45:27;;;;;;;5.53;0.90;;;;;;;38.82;25.96;99108.00;5019730;28;20029;-71
2022/09/05 09:48:20;;;;;;;2.17;0.80;;;;;;;40.55;23.90;99107.53;5022982;28;20740;-72
2022/09/05 09:51:11;;;;;;;4.03;1.10;;;;;;;37.21;26.88;99086.56;5026514;28;20025;-72
2022/09/05 09:54:10;;;;;;;2.67;1.00;;;;;;;37.01;27.13;99090.56;5024931;28;20124;-71
2022/09/05 09:57:00;;;;;;;2.10;0.80;;;;;;;36.37;27.72;99096.50;5028021;28;20533;-72
2022/09/05 09:59:44;;;;;;;2.72;1.40;;;;;;;36.35;28.27;99104.50;5006954;28;20064;-72
2022/09/05 10:02:25;;;;;;;2.00;0.80;;;;;;;37.63;26.19;99108.28;5021081;28;20065;-72
2022/09/05 10:05:25;;;;;;;3.08;0.80;;;;;;;37.36;26.98;99096.06;5028925;28;20033;-72
2022/09/05 10:07:52;;;;;;;1.73;0.90;;;;;;;38.04;24.49;99102.88;5001982;28;20116;-71
2022/09/05 10:10:32;;;;;;;1.80;0.70;;;;;;;38.05;25.38;99090.41;5021814;28;20049;-71
2022/09/05 10:13:16;;;;;;;1.35;0.77;;;;;;;39.59;23.78;99097.09;5025274;28;20034;-71
2022/09/05 10:16:15;;;;;;;1.45;0.85;;;;;;;39.71;23.73;99088.31;5007755;28;20660;-71
2022/09/05 10:19:01;;;;;;;1.58;0.85;;;;;;;38.72;25.02;99094.53;5007941;28;20534;-71
2022/09/05 10:21:56;;;;;;;1.63;0.77;;;;;;;38.57;24.99;99083.06;5027609;28;20037;-70
2022/09/05 10:24:40;;;;;;;1.50;0.88;;;;;;;38.00;25.29;99095.56;5024266;28;20052;-71
2022/09/05 10:27:20;;;;;;;2.45;1.20;;;;;;;38.60;24.94;99083.50;5018358;28;20045;-71
2022/09/05 10:30:02;;;;;;;2.15;1.00;;;;;;;38.31;24.97;99092.41;5021487;28;20044;-70
2022/09/05 10:32:45;;;;;;;1.58;0.80;;;;;;;38.75;24.77;99088.13;5026914;28;20104;-70
2022/09/05 10:35:16;;;;;;;3.25;0.82;;;;;;;39.12;24.50;99078.84;5027588;28;20082;-70
2022/09/05 10:37:55;;;;;;;2.05;1.02;;;;;;;39.83;23.29;99073.88;5022935;28;20141;-70
2022/09/05 10:40:24;;;;;;;1.15;0.68;;;;;;;40.52;22.28;99064.56;5021897;28;20418;-70
2022/09/05 10:42:52;;;;;;;1.55;0.90;;;;;;;39.84;23.28;99078.31;5027541;28;20082;-71
2022/09/05 10:45:27;;;;;;;;;;;;;;;37.68;25.16;99079.72;5004198;28;20063;-70
2022/09/05 10:48:22;;;;;;;0.85;0.70;;;;;;;37.81;24.66;99069.03;5015845;28;19913;-70
2022/09/05 10:51:19;;;;;;;2.35;0.80;;;;;;;39.52;22.72;99058.22;4984262;28;20490;-70
2022/09/05 10:54:00;;;;;;;1.00;0.80;;;;;;;39.15;23.52;99055.47;5015824;28;20037;-71
2022/09/05 10:56:36;;;;;;;2.03;0.80;;;;;;;39.36;23.21;99057.69;5023309;28;20028;-70
2022/09/05 10:59:16;;;;;;;3.15;0.75;;;;;;;40.02;22.65;99055.78;5020612;28;20036;-70
2022/09/05 11:02:05;;;;;;;1.23;0.77;;;;;;;38.06;23.37;99049.66;5028543;28;20031;-71
2022/09/05 11:04:48;;;;;;;2.15;0.77;;;;;;;39.27;22.30;99037.34;5025943;28;20235;-71
2022/09/05 11:07:16;;;;;;;0.98;0.68;;;;;;;41.42;20.67;99036.41;5020572;28;20034;-70
2022/09/05 11:09:51;;;;;;;0.95;0.80;;;;;;;41.90;20.48;99033.16;5007255;28;20029;-70
2022/09/05 11:12:38;;;;;;;2.28;0.70;;;;;;;40.93;21.43;99032.31;5029441;28;20037;-71
2022/09/05 11:15:16;;;;;;;2.78;0.90;;;;;;;41.62;20.57;99036.84;5001401;28;20032;-72
2022/09/05 11:17:54;;;;;;;1.27;0.80;;;;;;;40.19;22.01;99025.91;5008042;28;20037;-72
2022/09/05 11:20:42;;;;;;;2.38;0.70;;;;;;;40.79;21.77;99024.56;5019614;28;20056;-71
2022/09/05 11:23:18;;;;;;;6.72;1.10;;;;;;;40.28;22.03;99008.56;5029948;28;20056;-71
2022/09/05 11:25:46;;;;;;;1.35;0.90;;;;;;;40.68;21.55;99023.72;5037530;28;20041;-71
2022/09/05 11:28:16;;;;;;;2.13;1.00;;;;;;;38.96;21.75;99025.34;5027291;28;20034;-71
2022/09/05 11:30:52;;;;;;;5.68;0.77;;;;;;;36.23;25.12;99014.47;5028344;28;20029;-70
2022/09/05 11:33:37;;;;;;;2.33;0.90;;;;;;;34.74;26.76;99020.81;5028942;28;20029;-71
2022/09/05 11:36:17;;;;;;;1.83;0.90;;;;;;;33.31;28.76;99020.84;5019937;28;20037;-71
2022/09/05 11:38:51;;;;;;;1.52;1.00;;;;;;;34.52;27.09;99019.38;5023096;28;20033;-70
2022/09/05 11:41:54;;;;;;;2.30;0.90;;;;;;;37.34;25.75;99018.66;5023130;28;20042;-70
2022/09/05 11:44:38;;;;;;;1.00;0.60;;;;;;;39.63;22.17;99010.16;4993943;28;20041;-71
2022/09/05 11:47:33;;;;;;;1.98;0.90;;;;;;;41.80;20.40;99000.69;5023983;28;20038;-71
2022/09/05 11:50:10;;;;;;;4.65;0.88;;;;;;;40.98;20.48;99006.38;5008304;28;20034;-71
2022/09/05 11:53:00;;;;;;;2.95;0.73;;;;;;;41.35;19.84;99008.03;5008310;28;20041;-71
2022/09/05 11:55:25;;;;;;;1.58;0.80;;;;;;;42.60;18.81;99009.78;5025108;28;20030;-71
2022/09/05 11:57:54;;;;;;;3.50;0.70;;;;;;;41.25;20.03;99008.84;5010190;28;20029;-71
2022/09/05 12:00:24;;;;;;;5.03;0.68;;;;;;;42.36;19.37;99017.22;5025126;28;20048;-71
2022/09/05 12:03:17;;;;;;;1.15;0.75;;;;;;;41.16;19.48;99000.72;5021990;28;20033;-71
2022/09/05 12:06:07;;;;;;;1.40;0.70;;;;;;;41.26;19.43;99005.59;5013881;28;20498;-71
2022/09/05 12:09:03;;;;;;;0.93;0.80;;;;;;;41.69;18.60;99007.63;5031567;28;20026;-71
2022/09/05 12:12:01;;;;;;;1.02;0.65;;;;;;;40.63;18.89;99002.19;5009005;28;20064;-71
2022/09/05 12:14:26;;;;;;;;;;;;;;;40.19;19.08;98994.72;5026678;28;20088;-71
2022/09/05 12:17:17;;;;;;;1.00;0.67;;;;;;;39.66;19.30;99001.69;5047995;23;19928;-64
2022/09/05 12:20:09;;;;;;;1.85;0.75;;;;;;;40.00;18.52;98997.88;5067440;28;20059;-66
2022/09/05 12:22:37;;;;;;;3.20;0.80;;;;;;;40.47;19.28;98990.41;5077728;28;20030;-66
2022/09/05 12:25:19;;;;;;;1.25;0.77;;;;;;;40.96;17.99;98988.94;5073838;28;20031;-66
2022/09/05 12:27:51;;;;;;;1.15;0.65;;;;;;;39.60;19.21;98985.47;5086126;28;20081;-66
2022/09/05 12:30:28;;;;;;;1.85;0.70;;;;;;;40.93;18.35;98984.06;5074208;28;20462;-65
2022/09/05 12:33:09;;;;;;;0.70;0.60;;;;;;;41.56;18.22;98976.78;5070828;28;20036;-64
2022/09/05 12:35:50;;;;;;;1.60;0.73;;;;;;;40.05;18.31;98981.31;5075279;28;20035;-67